createdAt,value
2018-01-11T00:00:15.107Z,101142.59
2018-01-11T00:02:42.133Z,101140.19
2018-01-11T00:05:08.425Z,101141.22
2018-01-11T00:07:34.718Z,101133.78
2018-01-11T00:10:01.049Z,101145.06
2018-01-11T00:12:27.338Z,101142.41
2018-01-11T00:14:53.621Z,101144.70
2018-01-11T00:17:19.929Z,101143.56
2018-01-11T00:19:46.269Z,101148.03
2018-01-11T00:22:12.552Z,101144.16
2018-01-11T00:24:38.846Z,101143.38
2018-01-11T00:27:05.133Z,101142.83
2018-01-11T00:29:31.430Z,101142.30
2018-01-11T00:31:57.708Z,101142.89
2018-01-11T00:34:23.997Z,101154.92
2018-01-11T00:36:50.295Z,101155.11
2018-01-11T00:39:16.595Z,101151.63
2018-01-11T00:41:43.656Z,101159.09
2018-01-11T00:44:09.941Z,101157.39
2018-01-11T00:46:36.732Z,101159.70
2018-01-11T00:49:03.036Z,101163.25
2018-01-11T00:51:29.341Z,101162.05
2018-01-11T00:53:55.611Z,101166.49
2018-01-11T00:56:21.892Z,101174.39
2018-01-11T00:58:48.178Z,101171.40
2018-01-11T01:01:14.459Z,101180.74
2018-01-11T01:03:40.764Z,101175.01
2018-01-11T01:06:07.794Z,101182.59
2018-01-11T01:08:34.060Z,101176.89
2018-01-11T01:11:01.097Z,101185.92
2018-01-11T01:13:27.396Z,101186.82
2018-01-11T01:15:53.695Z,101195.20
2018-01-11T01:18:19.979Z,101196.23
2018-01-11T01:20:46.301Z,101202.73
2018-01-11T01:23:12.568Z,101206.77
2018-01-11T01:25:38.896Z,101210.75
2018-01-11T01:28:05.163Z,101210.88
2018-01-11T01:30:32.205Z,101216.17
2018-01-11T01:32:59.220Z,101214.17
2018-01-11T01:35:25.511Z,101212.78
2018-01-11T01:37:51.821Z,101215.50
2018-01-11T01:40:18.837Z,101213.22
2018-01-11T01:42:45.096Z,101214.73
2018-01-11T01:45:11.384Z,101212.97
2018-01-11T01:47:37.662Z,101212.08
2018-01-11T01:50:03.988Z,101219.23
2018-01-11T01:52:30.274Z,101217.02
2018-01-11T01:54:56.553Z,101217.72
2018-01-11T01:57:22.831Z,101224.34
2018-01-11T01:59:49.840Z,101224.29
2018-01-11T02:02:16.140Z,101228.82
2018-01-11T02:04:42.417Z,101228.88
2018-01-11T02:07:08.720Z,101223.70
2018-01-11T02:09:35.024Z,101224.66
2018-01-11T02:12:02.027Z,101230.79
2018-01-11T02:14:28.305Z,101230.45
2018-01-11T02:16:55.316Z,101232.73
2018-01-11T02:19:21.604Z,101233.23
2018-01-11T02:21:48.609Z,101244.36
2018-01-11T02:24:14.894Z,101244.79
2018-01-11T02:26:41.184Z,101245.68
2018-01-11T02:29:07.462Z,101246.63
2018-01-11T02:31:33.743Z,101244.05
2018-01-11T02:34:00.041Z,101250.36
2018-01-11T02:36:26.307Z,101250.02
2018-01-11T02:38:52.589Z,101243.80
2018-01-11T02:41:19.603Z,101246.94
2018-01-11T02:43:45.892Z,101253.26
2018-01-11T02:46:12.179Z,101258.50
2018-01-11T02:48:38.445Z,101254.64
2018-01-11T02:51:05.478Z,101253.75
2018-01-11T02:53:31.748Z,101256.64
2018-01-11T02:55:58.022Z,101265.80
2018-01-11T02:58:24.287Z,101271.63
2018-01-11T03:00:50.604Z,101279.58
2018-01-11T03:03:18.286Z,101281.91
2018-01-11T03:05:44.557Z,101280.59
2018-01-11T03:08:10.864Z,101282.96
2018-01-11T03:10:37.130Z,101281.70
2018-01-11T03:13:03.402Z,101286.19
2018-01-11T03:15:29.705Z,101298.12
2018-01-11T03:17:55.968Z,101299.44
2018-01-11T03:20:22.236Z,101298.73
2018-01-11T03:22:48.521Z,101301.27
2018-01-11T03:25:14.799Z,101306.12
2018-01-11T03:27:41.161Z,101303.91
2018-01-11T03:30:07.433Z,101307.14
2018-01-11T03:32:33.704Z,101308.06
2018-01-11T03:34:59.981Z,101313.45
2018-01-11T03:37:26.256Z,101308.59
2018-01-11T03:39:52.801Z,101311.23
2018-01-11T03:42:19.068Z,101310.92
2018-01-11T03:44:46.092Z,101314.01
2018-01-11T03:47:12.348Z,101316.84
2018-01-11T03:49:38.629Z,101320.31
2018-01-11T03:52:04.911Z,101321.77
2018-01-11T03:54:31.180Z,101325.63
2018-01-11T03:56:57.457Z,101327.00
2018-01-11T03:59:23.733Z,101327.50
2018-01-11T04:01:50.744Z,101326.69
2018-01-11T04:04:17.051Z,101333.81
2018-01-11T04:06:43.331Z,101325.86
2018-01-11T04:09:09.625Z,101339.54
2018-01-11T04:11:35.884Z,101340.95
2018-01-11T04:14:02.171Z,101343.27
2018-01-11T04:16:29.202Z,101338.80
2018-01-11T04:18:55.476Z,101338.02
2018-01-11T04:21:21.736Z,101340.61
2018-01-11T04:23:48.029Z,101341.13
2018-01-11T04:26:15.047Z,101342.89
2018-01-11T04:28:41.332Z,101340.30
2018-01-11T04:31:07.616Z,101344.79
2018-01-11T04:33:33.917Z,101351.47
2018-01-11T04:36:00.207Z,101352.40
2018-01-11T04:38:26.472Z,101350.76
2018-01-11T04:40:52.763Z,101359.02
2018-01-11T04:43:19.042Z,101359.48
2018-01-11T04:45:45.336Z,101364.84
2018-01-11T04:48:11.628Z,101370.57
2018-01-11T04:50:37.923Z,101369.68
2018-01-11T04:53:04.935Z,101364.95
2018-01-11T04:55:31.196Z,101368.04
2018-01-11T04:57:57.493Z,101372.97
2018-01-11T05:00:23.786Z,101377.43
2018-01-11T05:02:50.797Z,101379.84
2018-01-11T05:05:17.093Z,101372.91
2018-01-11T05:07:43.362Z,101371.33
2018-01-11T05:10:09.674Z,101373.14
2018-01-11T05:12:35.956Z,101373.63
2018-01-11T05:15:02.248Z,101385.58
2018-01-11T05:17:28.533Z,101387.02
2018-01-11T05:19:54.802Z,101384.02
2018-01-11T05:22:21.092Z,101382.30
2018-01-11T05:24:47.355Z,101383.92
2018-01-11T05:27:14.357Z,101384.48
2018-01-11T05:29:40.659Z,101386.77
2018-01-11T05:32:06.948Z,101388.52
2018-01-11T05:34:33.251Z,101383.53
2018-01-11T05:36:59.532Z,101393.52
2018-01-11T05:39:25.829Z,101396.09
2018-01-11T05:41:52.143Z,101377.62
2018-01-11T05:44:18.433Z,101402.39
2018-01-11T05:46:44.728Z,101405.73
2018-01-11T05:49:11.035Z,101416.59
2018-01-11T05:51:37.336Z,101417.44
2018-01-11T05:54:03.634Z,101425.71
2018-01-11T05:56:29.919Z,101429.67
2018-01-11T05:58:56.212Z,101429.78
2018-01-11T06:01:22.516Z,101433.41
2018-01-11T06:03:48.793Z,101447.13
2018-01-11T06:06:15.156Z,101447.73
2018-01-11T06:08:41.447Z,101449.88
2018-01-11T06:11:07.728Z,101456.28
2018-01-11T06:13:34.041Z,101460.80
2018-01-11T06:16:00.324Z,101462.38
2018-01-11T06:18:26.639Z,101463.47
2018-01-11T06:20:52.924Z,101461.59
2018-01-11T06:23:19.180Z,101465.53
2018-01-11T06:25:45.463Z,101472.06
2018-01-11T06:28:11.726Z,101478.53
2018-01-11T06:30:38.048Z,101485.86
2018-01-11T06:33:04.320Z,101494.61
2018-01-11T06:35:30.601Z,101495.05
2018-01-11T06:37:57.636Z,101499.93
2018-01-11T06:40:23.908Z,101502.87
2018-01-11T06:42:50.228Z,101503.64
2018-01-11T06:45:17.272Z,101512.90
2018-01-11T06:47:44.304Z,101507.02
2018-01-11T06:50:10.598Z,101519.17
2018-01-11T06:52:36.874Z,101519.14
2018-01-11T06:55:03.156Z,101515.53
2018-01-11T06:57:29.434Z,101516.91
2018-01-11T06:59:55.720Z,101521.91
2018-01-11T07:02:22.021Z,101528.45
2018-01-11T07:04:48.328Z,101531.45
2018-01-11T07:07:14.656Z,101533.73
2018-01-11T07:09:40.927Z,101540.49
2018-01-11T07:12:07.949Z,101538.36
2018-01-11T07:14:34.246Z,101542.16
2018-01-11T07:17:00.531Z,101542.61
2018-01-11T07:19:26.839Z,101548.02
2018-01-11T07:21:53.145Z,101554.27
2018-01-11T07:24:19.444Z,101561.66
2018-01-11T07:26:45.721Z,101573.36
2018-01-11T07:29:12.019Z,101567.73
2018-01-11T07:31:38.304Z,101571.41
2018-01-11T07:34:04.596Z,101572.19
2018-01-11T07:36:30.871Z,101576.33
2018-01-11T07:38:57.156Z,101572.41
2018-01-11T07:41:23.433Z,101580.56
2018-01-11T07:43:49.771Z,101578.55
2018-01-11T07:46:16.053Z,101586.83
2018-01-11T07:48:42.348Z,101593.47
2018-01-11T07:51:08.657Z,101599.99
2018-01-11T07:53:35.697Z,101602.34
2018-01-11T07:56:02.020Z,101614.05
2018-01-11T07:58:28.296Z,101617.14
2018-01-11T08:00:54.581Z,101622.02
2018-01-11T08:03:20.867Z,101620.67
2018-01-11T08:05:47.139Z,101624.42
2018-01-11T08:08:13.443Z,101629.73
2018-01-11T08:10:39.712Z,101638.81
2018-01-11T08:13:06.176Z,101643.39
2018-01-11T08:15:32.441Z,101645.22
2018-01-11T08:17:59.483Z,101651.62
2018-01-11T08:20:26.545Z,101655.84
2018-01-11T08:22:53.548Z,101653.87
2018-01-11T08:25:19.834Z,101664.22
2018-01-11T08:27:46.857Z,101662.69
2018-01-11T08:30:13.137Z,101667.78
2018-01-11T08:32:39.464Z,101671.70
2018-01-11T08:35:05.749Z,101676.52
2018-01-11T08:37:32.451Z,101677.13
2018-01-11T08:39:58.736Z,101680.77
2018-01-11T08:42:25.024Z,101684.37
2018-01-11T08:44:51.767Z,101689.98
2018-01-11T08:47:18.041Z,101695.45
2018-01-11T08:49:44.316Z,101704.60
2018-01-11T08:52:11.342Z,101713.02
2018-01-11T08:54:39.239Z,101711.27
2018-01-11T08:57:06.271Z,101717.49
2018-01-11T08:59:32.551Z,101722.36
2018-01-11T09:01:58.842Z,101723.61
2018-01-11T09:04:25.122Z,101728.25
2018-01-11T09:06:51.388Z,101729.52
2018-01-11T09:09:17.676Z,101730.16
2018-01-11T09:11:43.982Z,101738.78
2018-01-11T09:14:10.277Z,101747.75
2018-01-11T09:16:36.552Z,101754.25
2018-01-11T09:19:03.587Z,101746.69
2018-01-11T09:21:29.904Z,101754.12
2018-01-11T09:23:56.178Z,101749.88
2018-01-11T09:26:22.467Z,101755.16
2018-01-11T09:28:48.767Z,101758.92
2018-01-11T09:31:15.827Z,101761.75
2018-01-11T09:33:42.122Z,101766.55
2018-01-11T09:36:08.405Z,101768.20
2018-01-11T09:38:34.781Z,101772.43
2018-01-11T09:41:01.077Z,101776.60
2018-01-11T09:43:27.374Z,101781.09
2018-01-11T09:45:53.663Z,101781.39
2018-01-11T09:48:19.930Z,101775.16
2018-01-11T09:50:46.196Z,101787.20
2018-01-11T09:53:13.200Z,101792.89
2018-01-11T09:55:39.487Z,101794.22
2018-01-11T09:58:06.549Z,101796.64
2018-01-11T10:00:33.553Z,101799.19
2018-01-11T10:02:59.835Z,101799.34
2018-01-11T10:05:26.865Z,101803.16
2018-01-11T10:07:53.142Z,101805.29
2018-01-11T10:10:19.436Z,101813.46
2018-01-11T10:12:45.733Z,101805.04
2018-01-11T10:15:12.006Z,101814.66
2018-01-11T10:17:38.289Z,101814.23
2018-01-11T10:20:11.565Z,101816.95
2018-01-11T10:22:38.604Z,101820.77
2018-01-11T10:25:05.648Z,101829.77
2018-01-11T10:27:32.675Z,101831.34
2018-01-11T10:29:58.951Z,101830.34
2018-01-11T10:32:25.248Z,101821.27
2018-01-11T10:34:51.558Z,101822.80
2018-01-11T10:37:17.936Z,101829.13
2018-01-11T10:39:44.242Z,101824.94
2018-01-11T10:42:10.505Z,101819.56
2018-01-11T10:44:36.783Z,101826.59
2018-01-11T10:47:03.087Z,101819.95
2018-01-11T10:49:30.141Z,101822.94
2018-01-11T10:51:56.415Z,101825.73
2018-01-11T10:54:22.755Z,101827.59
2018-01-11T10:56:49.028Z,101832.56
2018-01-11T10:59:15.334Z,101836.86
2018-01-11T11:01:47.616Z,101841.58
2018-01-11T11:04:13.900Z,101836.64
2018-01-11T11:06:40.935Z,101841.83
2018-01-11T11:09:07.207Z,101833.52
2018-01-11T11:11:33.514Z,101837.95
2018-01-11T11:14:00.552Z,101842.22
2018-01-11T11:16:27.600Z,101837.56
2018-01-11T11:18:53.870Z,101840.09
2018-01-11T11:21:20.168Z,101841.30
2018-01-11T11:23:46.470Z,101840.41
2018-01-11T11:26:12.738Z,101849.89
2018-01-11T11:28:39.036Z,101848.11
2018-01-11T11:31:05.316Z,101851.91
2018-01-11T11:33:31.638Z,101846.34
2018-01-11T11:35:57.941Z,101852.81
2018-01-11T11:38:24.216Z,101851.66
2018-01-11T11:40:50.508Z,101863.94
2018-01-11T11:43:16.789Z,101864.66
2018-01-11T11:45:43.065Z,101859.45
2018-01-11T11:48:09.375Z,101859.55
2018-01-11T11:50:36.414Z,101857.14
2018-01-11T11:53:02.691Z,101862.47
2018-01-11T11:55:28.971Z,101861.52
2018-01-11T11:57:55.252Z,101865.44
2018-01-11T12:00:21.581Z,101863.91
2018-01-11T12:02:48.585Z,101864.97
2018-01-11T12:05:14.870Z,101864.67
2018-01-11T12:07:41.166Z,101857.94
2018-01-11T12:10:07.472Z,101860.07
2018-01-11T12:12:33.757Z,101866.81
2018-01-11T12:15:00.044Z,101861.09
2018-01-11T12:17:26.327Z,101869.34
2018-01-11T12:19:52.593Z,101865.91
2018-01-11T12:22:18.856Z,101870.95
2018-01-11T12:24:45.132Z,101871.40
2018-01-11T12:27:11.403Z,101865.64
2018-01-11T12:29:37.672Z,101869.51
2018-01-11T12:32:03.948Z,101869.41
2018-01-11T12:34:30.225Z,101873.78
2018-01-11T12:36:56.511Z,101881.06
2018-01-11T12:39:23.524Z,101875.73
2018-01-11T12:41:49.787Z,101877.37
2018-01-11T12:44:16.053Z,101876.88
2018-01-11T12:46:42.325Z,101875.23
2018-01-11T12:49:08.628Z,101880.98
2018-01-11T12:51:34.919Z,101877.19
2018-01-11T12:54:01.193Z,101877.45
2018-01-11T12:56:27.496Z,101885.81
2018-01-11T12:58:53.775Z,101885.75
2018-01-11T13:01:20.069Z,101882.81
2018-01-11T13:03:46.414Z,101895.45
2018-01-11T13:06:13.424Z,101892.41
2018-01-11T13:08:39.735Z,101895.51
2018-01-11T13:11:06.023Z,101898.39
2018-01-11T13:13:32.305Z,101906.94
2018-01-11T13:15:58.582Z,101913.12
2018-01-11T13:18:24.857Z,101912.48
2018-01-11T13:20:51.125Z,101915.72
2018-01-11T13:23:17.402Z,101922.50
2018-01-11T13:25:43.693Z,101920.81
2018-01-11T13:28:09.979Z,101924.87
2018-01-11T13:30:37.000Z,101929.42
2018-01-11T13:33:03.335Z,101932.83
2018-01-11T13:35:29.616Z,101935.81
2018-01-11T13:37:56.656Z,101937.34
2018-01-11T13:40:23.664Z,101942.49
2018-01-11T13:42:49.928Z,101944.58
2018-01-11T13:45:16.239Z,101951.25
2018-01-11T13:47:42.500Z,101949.37
2018-01-11T13:50:08.772Z,101949.72
2018-01-11T13:52:35.075Z,101957.31
2018-01-11T13:55:01.893Z,101952.74
2018-01-11T13:57:28.173Z,101956.23
2018-01-11T13:59:55.217Z,101955.57
2018-01-11T14:02:22.260Z,101967.92
2018-01-11T14:04:48.549Z,101977.92
2018-01-11T14:07:14.829Z,101983.81
2018-01-11T14:09:41.111Z,101985.45
2018-01-11T14:12:07.407Z,101987.16
2018-01-11T14:14:33.704Z,101991.98
2018-01-11T14:16:59.965Z,101994.48
2018-01-11T14:19:26.278Z,101991.81
2018-01-11T14:21:52.585Z,101994.53
2018-01-11T14:24:18.880Z,102004.57
2018-01-11T14:26:45.164Z,102002.52
2018-01-11T14:29:11.464Z,102002.45
2018-01-11T14:31:38.525Z,102007.23
2018-01-11T14:34:05.564Z,102010.31
2018-01-11T14:36:31.856Z,102017.51
2018-01-11T14:38:58.161Z,102018.73
2018-01-11T14:41:25.152Z,102023.81
2018-01-11T14:43:51.504Z,102027.52
2018-01-11T14:46:17.781Z,102026.13
2018-01-11T14:48:44.273Z,102032.08
2018-01-11T14:51:10.588Z,102034.05
2018-01-11T14:53:36.868Z,102041.58
2018-01-11T14:56:03.160Z,102039.17
2018-01-11T14:58:29.461Z,102041.45
2018-01-11T15:00:55.774Z,102051.80
2018-01-11T15:03:22.079Z,102052.77
2018-01-11T15:05:48.399Z,102049.02
2018-01-11T15:08:14.693Z,102059.38
2018-01-11T15:10:40.988Z,102056.41
2018-01-11T15:13:07.302Z,102060.45
2018-01-11T15:15:33.597Z,102064.67
2018-01-11T15:18:00.642Z,102070.89
2018-01-11T15:20:26.972Z,102076.79
2018-01-11T15:22:53.275Z,102079.45
2018-01-11T15:25:19.569Z,102076.09
2018-01-11T15:27:46.596Z,102085.39
2018-01-11T15:30:12.936Z,102083.63
2018-01-11T15:32:39.258Z,102093.27
2018-01-11T15:35:05.540Z,102105.40
2018-01-11T15:37:31.895Z,102099.26
2018-01-11T15:39:58.165Z,102100.72
2018-01-11T15:42:24.460Z,102104.09
2018-01-11T15:44:50.780Z,102094.66
2018-01-11T15:47:17.095Z,102105.56
2018-01-11T15:49:44.147Z,102109.41
2018-01-11T15:52:10.464Z,102104.52
2018-01-11T15:54:36.748Z,102113.03
2018-01-11T15:57:03.089Z,102117.97
2018-01-11T15:59:29.405Z,102110.64
2018-01-11T16:01:55.702Z,102119.38
2018-01-11T16:04:21.996Z,102122.49
2018-01-11T16:06:48.317Z,102132.87
2018-01-11T16:09:14.608Z,102130.66
2018-01-11T16:11:40.904Z,102134.23
2018-01-11T16:14:07.216Z,102142.34
2018-01-11T16:16:33.508Z,102136.16
2018-01-11T16:18:59.792Z,102145.47
2018-01-11T16:21:26.112Z,102146.67
2018-01-11T16:23:53.135Z,102145.30
2018-01-11T16:26:19.431Z,102146.00
2018-01-11T16:28:45.720Z,102145.40
2018-01-11T17:28:37.859Z,102202.89
2018-01-11T17:31:04.216Z,102197.74
2018-01-11T17:33:30.528Z,102201.68
2018-01-11T17:35:56.834Z,102199.47
2018-01-11T17:38:23.882Z,102213.52
2018-01-11T17:40:50.934Z,102213.41
2018-01-11T17:43:17.303Z,102210.36
2018-01-11T17:45:43.588Z,102218.26
2018-01-11T17:48:09.950Z,102221.02
2018-01-11T17:50:37.036Z,102221.47
2018-01-11T17:53:03.351Z,102233.58
2018-01-11T17:55:30.405Z,102231.34
2018-01-11T18:01:07.110Z,102237.89
2018-01-11T18:03:33.401Z,102237.19
2018-01-11T18:06:00.563Z,102239.56
2018-01-11T18:08:27.586Z,102241.06
2018-01-11T18:10:53.884Z,102256.66
2018-01-11T18:13:20.208Z,102253.39
2018-01-11T18:15:46.547Z,102242.45
2018-01-11T18:18:12.836Z,102245.59
2018-01-11T18:20:39.118Z,102250.48
2018-01-11T18:23:05.556Z,102246.31
2018-01-11T18:41:30.606Z,102283.33
2018-01-11T18:43:57.188Z,102284.52
2018-01-11T18:46:23.505Z,102287.07
2018-01-11T19:09:33.419Z,102341.56
2018-01-11T19:11:59.689Z,102341.34
2018-01-11T19:32:10.638Z,102355.66
2018-01-11T20:20:27.700Z,102405.56
2018-01-11T20:22:54.743Z,102394.34
2018-01-11T20:25:21.823Z,102393.95
2018-01-11T20:27:48.385Z,102398.34
2018-01-11T20:30:14.704Z,102398.61
2018-01-11T20:32:41.016Z,102402.75
2018-01-11T20:35:08.089Z,102406.97
2018-01-11T20:37:34.422Z,102401.03
2018-01-11T20:40:00.728Z,102399.18
2018-01-11T20:42:27.784Z,102402.72
2018-01-11T20:44:54.849Z,102408.50
2018-01-11T20:47:21.925Z,102407.08
2018-01-11T20:49:48.285Z,102409.17
2018-01-11T20:52:14.601Z,102411.52
2018-01-11T20:54:40.935Z,102407.75
2018-01-11T20:57:07.260Z,102413.70
2018-01-11T20:59:33.584Z,102418.55
2018-01-11T21:02:00.668Z,102422.49
2018-01-11T21:04:26.973Z,102421.48
2018-01-11T21:06:54.035Z,102428.03
2018-01-11T21:09:20.378Z,102427.02
2018-01-11T21:11:46.685Z,102431.52
2018-01-11T21:14:12.990Z,102427.14
2018-01-11T21:16:46.312Z,102436.94
2018-01-11T21:19:13.388Z,102430.88
2018-01-11T21:21:39.732Z,102432.20
2018-01-11T21:24:06.093Z,102430.63
2018-01-11T21:26:32.422Z,102439.93
2018-01-11T21:28:58.749Z,102436.16
2018-01-11T21:31:25.068Z,102438.86
2018-01-11T21:34:15.699Z,102444.69
2018-01-11T21:36:42.028Z,102444.83
2018-01-11T21:39:08.340Z,102448.25
2018-01-11T21:41:34.659Z,102445.81
2018-01-11T21:44:01.759Z,102437.81
2018-01-11T21:46:28.121Z,102440.92
2018-01-11T21:48:54.462Z,102449.89
2018-01-11T21:51:20.796Z,102445.09
2018-01-11T21:53:47.137Z,102445.49
2018-01-11T21:56:13.468Z,102437.74
2018-01-11T21:58:39.789Z,102446.04
2018-01-11T22:01:06.105Z,102446.48
2018-01-11T22:03:32.444Z,102451.75
2018-01-11T22:05:58.791Z,102453.55
2018-01-11T22:08:25.109Z,102450.20
2018-01-11T22:10:51.458Z,102458.72
2018-01-11T22:13:17.776Z,102464.61
2018-01-11T22:15:44.208Z,102464.19
2018-01-11T22:18:10.549Z,102467.28
2018-01-11T22:20:36.888Z,102473.03
2018-01-11T22:23:03.228Z,102472.56
2018-01-11T22:33:08.926Z,102478.41
2018-01-11T22:35:35.604Z,102479.44
2018-01-11T22:38:02.319Z,102485.55
2018-01-11T22:40:28.641Z,102483.64
2018-01-11T22:43:18.506Z,102493.81
2018-01-11T22:45:48.479Z,102493.56
2018-01-11T22:48:14.823Z,102505.59
2018-01-11T22:50:41.148Z,102502.70
2018-01-11T22:53:07.468Z,102496.81
2018-01-11T22:58:30.883Z,102504.61
2018-01-11T23:00:57.199Z,102507.58
2018-01-11T23:03:23.526Z,102502.80
2018-01-11T23:05:49.852Z,102498.95
2018-01-11T23:08:16.165Z,102507.09
2018-01-11T23:10:42.473Z,102509.73
2018-01-11T23:33:30.314Z,102528.64
2018-01-11T23:38:54.232Z,102526.93
2018-01-11T23:41:20.535Z,102530.44
2018-01-11T23:43:46.844Z,102533.16
2018-01-11T23:52:07.280Z,102534.61
2018-01-11T23:54:33.594Z,102529.43
2018-01-11T23:56:59.895Z,102534.76
2018-01-11T23:59:26.964Z,102531.36
